Tonopah Airport
KTPH : now visible

Airfield :











YOU CAN JOIN US ON...

 
LOGIN :

Register | Disclaimer

   EN    FR    IT 

 









Legend :    VFR   Marginal VFR   IFR   Intensive IFR   Very Intensive IFR
Visi :
Ceiling :
>= 8 km
>= 3000ft
5 to 8 km
1000 to 3000 ft
1500m to 5 km
500 to 1000 ft
800 to 1500m
200 to 500 ft
< 800m
< 200 ft
Symbols :   Thunderstorms  Fog  Heavy snow  Heavy precipitations  Wind > 20 kt






- Airport Elevation : 5430 ft


KTPH - Tonopah

CURRENT METAR :
  • 172256Z AUTO 25005KT 10SM CLR 36/M04 A3005 RMK AO2 SLP080 T03561044

EXPIRED METARs :
  • 172156Z AUTO 17008KT 10SM CLR 37/M04 A3007 RMK AO2 SLP084 T03671044
  • 172056Z AUTO 10SM CLR 36/M04 A3009 RMK AO2 SLP089 T03611039 58021

TAF KTPH
Valid from the 18 at 00:00 until the 19 at 00:00 UTC


172324Z 1800/1824 33010G20KT P6SM SCT120 BKN200
FM180500 01007KT P6SM SCT120 BKN200
FM182000 25007G17KT P6SM BKN120
KZLC FIR / North America



MET'MAP, your aeronautical weather chart ! - Copyright ORBIFLY December 2007 - Disclaimer

ORBIFLY MET'MAP TEAM :

Programming & Development : Alexandra Zaïnal
Concept & original design : Baudouin d'Aumeries
Assistance for programming : Marc-Olivier Méhu
Technical & hardware support : Manuel Goepfert

Contact : metmap@orbifly.com




SOURCES & CREDITS :

   NOAA       Earth
Advisory